Time;durP1;ratioP1;P1;durP2;ratioP2;P2;SDS_P1;SDS_P2;PMS_P1;PMS_P2;Temp;Humidity;BMP_temperature;BMP_pressure;BME280_temperature;BME280_humidity;BME280_pressure;Samples;Min_cycle;Max_cycle;Signal;HPM_P1;HPM_P2
2021/06/24 00:01:43;;;;;;;20.30;19.10;;;17.40;99.90;;;;;;4972375;28;20448;-67
2021/06/24 00:04:12;;;;;;;20.90;19.53;;;17.40;99.90;;;;;;4972595;28;20451;-67
2021/06/24 00:06:38;;;;;;;20.60;19.20;;;17.30;99.90;;;;;;4972556;28;20456;-66
2021/06/24 00:09:06;;;;;;;20.10;18.70;;;17.30;99.90;;;;;;4972542;28;20452;-67
2021/06/24 00:11:33;;;;;;;20.83;19.37;;;17.20;99.90;;;;;;4972466;28;20452;-67
2021/06/24 00:14:00;;;;;;;19.03;18.03;;;17.20;99.90;;;;;;4972422;28;20841;-68
2021/06/24 00:16:28;;;;;;;20.53;19.33;;;17.20;99.90;;;;;;4972423;28;20460;-68
2021/06/24 00:18:55;;;;;;;20.90;19.30;;;17.20;99.90;;;;;;4972449;28;20455;-68
2021/06/24 00:21:23;;;;;;;20.07;18.87;;;17.20;99.90;;;;;;4972159;28;20463;-67
2021/06/24 00:23:50;;;;;;;20.00;18.73;;;17.20;99.90;;;;;;4972429;28;20542;-66
2021/06/24 00:26:17;;;;;;;19.07;18.00;;;17.20;99.90;;;;;;4972319;28;20487;-67
2021/06/24 00:28:44;;;;;;;21.80;20.30;;;17.20;99.90;;;;;;4972287;28;20459;-67
2021/06/24 00:31:11;;;;;;;20.37;19.13;;;17.20;99.90;;;;;;4972134;28;20474;-67
2021/06/24 00:33:37;;;;;;;19.40;18.03;;;17.20;99.90;;;;;;4972249;28;20487;-67
2021/06/24 00:36:05;;;;;;;19.90;18.90;;;17.20;99.90;;;;;;4972131;28;20479;-68
2021/06/24 00:38:33;;;;;;;20.43;19.23;;;17.20;99.90;;;;;;4972356;28;20451;-68
2021/06/24 00:41:00;;;;;;;20.50;19.17;;;17.20;99.90;;;;;;4972125;28;20454;-68
2021/06/24 00:43:27;;;;;;;19.97;18.43;;;17.30;99.90;;;;;;4972214;28;20444;-67
2021/06/24 00:45:54;;;;;;;20.30;19.00;;;17.30;99.90;;;;;;4972188;28;20837;-68
2021/06/24 00:48:21;;;;;;;18.73;17.60;;;17.30;99.90;;;;;;4972286;28;20451;-67
2021/06/24 00:50:48;;;;;;;19.20;18.00;;;17.30;99.90;;;;;;4974932;28;20462;-67
2021/06/24 00:53:15;;;;;;;19.83;18.67;;;17.30;99.90;;;;;;4975343;28;20494;-67
2021/06/24 00:55:45;;;;;;;21.70;19.67;;;17.20;99.90;;;;;;4975539;28;20867;-67
2021/06/24 00:58:16;;;;;;;21.60;20.00;;;17.20;99.90;;;;;;4975660;28;20514;-67
2021/06/24 01:00:45;;;;;;;19.47;18.17;;;17.20;99.90;;;;;;4975691;28;20455;-67
2021/06/24 01:03:13;;;;;;;21.13;19.73;;;17.20;99.90;;;;;;4975287;28;20470;-67
2021/06/24 01:05:40;;;;;;;20.50;19.20;;;17.20;99.90;;;;;;4975418;28;20491;-66
2021/06/24 01:08:10;;;;;;;20.00;18.90;;;17.20;99.90;;;;;;4975456;28;20448;-67
2021/06/24 01:10:37;;;;;;;18.90;17.70;;;17.20;99.90;;;;;;4975470;28;20536;-67
2021/06/24 01:13:07;;;;;;;20.27;18.63;;;17.10;99.90;;;;;;4974994;28;20458;-67
2021/06/24 01:15:34;;;;;;;20.57;18.97;;;17.10;99.90;;;;;;4975341;28;20825;-67
2021/06/24 01:18:01;;;;;;;19.67;18.47;;;17.10;99.90;;;;;;4975265;28;20448;-67
2021/06/24 01:20:31;;;;;;;19.83;18.63;;;17.10;99.90;;;;;;4975137;28;20462;-68
2021/06/24 01:22:59;;;;;;;19.97;18.70;;;17.10;99.90;;;;;;4974987;28;20447;-68
2021/06/24 01:25:27;;;;;;;22.80;20.00;;;17.10;99.90;;;;;;4975033;28;20483;-68
2021/06/24 01:27:57;;;;;;;20.70;19.30;;;17.10;99.90;;;;;;4975281;28;20460;-67
2021/06/24 01:30:24;;;;;;;19.67;18.37;;;17.10;99.90;;;;;;4975015;28;20872;-68
2021/06/24 01:32:52;;;;;;;20.30;18.77;;;17.00;99.90;;;;;;4974711;28;20454;-67
2021/06/24 01:35:21;;;;;;;20.30;18.90;;;17.00;99.90;;;;;;4974732;28;20491;-67
2021/06/24 01:37:48;;;;;;;20.67;19.37;;;17.00;99.90;;;;;;4974875;28;20444;-67
2021/06/24 01:40:15;;;;;;;21.23;19.70;;;17.00;99.90;;;;;;4974841;28;20487;-67
2021/06/24 01:42:43;;;;;;;20.73;19.20;;;17.00;99.90;;;;;;4974675;28;20459;-67
2021/06/24 01:45:11;;;;;;;19.97;18.87;;;17.00;99.90;;;;;;4974832;28;20472;-67
2021/06/24 01:47:37;;;;;;;20.27;18.87;;;17.00;99.90;;;;;;4974856;28;20463;-67
2021/06/24 01:50:08;;;;;;;21.20;19.97;;;17.00;99.90;;;;;;4974636;28;20446;-67
2021/06/24 01:52:35;;;;;;;21.67;20.17;;;17.00;99.90;;;;;;4974432;28;20445;-67
2021/06/24 01:55:01;;;;;;;20.23;19.23;;;17.00;99.90;;;;;;4974345;28;21046;-67
2021/06/24 01:57:28;;;;;;;21.53;20.03;;;17.00;99.90;;;;;;4974456;28;20444;-67
2021/06/24 01:59:57;;;;;;;20.33;18.50;;;17.00;99.90;;;;;;4974222;28;20451;-68
2021/06/24 02:02:24;;;;;;;21.13;19.77;;;17.00;99.90;;;;;;4974124;28;20448;-67
2021/06/24 02:04:51;;;;;;;20.53;19.13;;;16.90;99.90;;;;;;4974221;28;20471;-67
2021/06/24 02:07:18;;;;;;;21.07;19.67;;;16.90;99.90;;;;;;4974356;28;20467;-68
2021/06/24 02:09:44;;;;;;;21.47;20.07;;;16.90;99.90;;;;;;4974192;28;20440;-67
2021/06/24 02:12:11;;;;;;;19.80;18.60;;;16.90;99.90;;;;;;4973991;28;20455;-67
2021/06/24 02:14:38;;;;;;;21.90;20.13;;;16.90;99.90;;;;;;4974014;28;20487;-68
2021/06/24 02:17:06;;;;;;;20.83;19.53;;;16.90;99.90;;;;;;4973965;28;20456;-67
2021/06/24 02:19:33;;;;;;;21.80;20.47;;;16.90;99.90;;;;;;4974006;28;20459;-67
2021/06/24 02:21:59;;;;;;;21.43;19.90;;;16.90;99.90;;;;;;4973766;28;20956;-67
2021/06/24 02:24:26;;;;;;;24.70;22.30;;;16.80;99.90;;;;;;4973782;28;20487;-68
2021/06/24 02:26:53;;;;;;;22.07;20.17;;;16.80;99.90;;;;;;4974068;28;20471;-67
2021/06/24 02:29:20;;;;;;;22.40;20.60;;;16.80;99.90;;;;;;4973891;28;20455;-67
2021/06/24 02:31:46;;;;;;;22.13;20.47;;;16.80;99.90;;;;;;4973582;28;20487;-68
2021/06/24 02:34:17;;;;;;;21.80;20.40;;;16.80;99.90;;;;;;4973569;28;20494;-68
2021/06/24 02:36:44;;;;;;;22.03;20.53;;;16.80;99.90;;;;;;4973782;28;20447;-67
2021/06/24 02:39:11;;;;;;;21.83;20.50;;;16.70;99.90;;;;;;4973656;28;20825;-67
2021/06/24 02:41:37;;;;;;;22.83;21.27;;;16.70;99.90;;;;;;4973430;28;20452;-67
2021/06/24 02:44:05;;;;;;;23.37;21.77;;;16.60;99.90;;;;;;4973522;28;20478;-68
2021/06/24 02:46:31;;;;;;;22.17;20.67;;;16.60;99.90;;;;;;4973391;28;20950;-67
2021/06/24 02:48:58;;;;;;;23.00;21.40;;;16.60;99.90;;;;;;4973555;28;20470;-68
2021/06/24 02:51:26;;;;;;;23.47;21.97;;;16.60;99.90;;;;;;4973106;28;20448;-68
2021/06/24 02:53:53;;;;;;;22.60;21.00;;;16.60;99.90;;;;;;4973291;28;20491;-68
2021/06/24 02:56:22;;;;;;;21.50;20.07;;;16.60;99.90;;;;;;4973296;28;20464;-67
2021/06/24 02:58:49;;;;;;;23.60;21.90;;;16.60;99.90;;;;;;4973326;28;20452;-67
2021/06/24 03:01:16;;;;;;;25.67;23.70;;;16.60;99.90;;;;;;4973045;28;20451;-68
2021/06/24 03:03:42;;;;;;;24.67;22.97;;;16.60;99.90;;;;;;4973035;28;20451;-67
2021/06/24 03:06:09;;;;;;;24.70;23.07;;;16.60;99.90;;;;;;4973077;28;20471;-67
2021/06/24 03:08:37;;;;;;;23.07;21.53;;;16.60;99.90;;;;;;4973036;28;20458;-68
2021/06/24 03:11:04;;;;;;;24.83;23.03;;;16.60;99.90;;;;;;4973198;28;20444;-67
2021/06/24 03:13:31;;;;;;;24.20;22.20;;;16.60;99.90;;;;;;4972427;28;20811;-67
2021/06/24 03:15:58;;;;;;;25.30;23.53;;;16.60;99.90;;;;;;4973057;28;20471;-67
2021/06/24 03:18:24;;;;;;;24.40;22.53;;;16.70;99.90;;;;;;4972974;28;20443;-67
2021/06/24 03:20:51;;;;;;;24.30;22.70;;;16.60;99.90;;;;;;4972894;28;20451;-67
2021/06/24 03:23:18;;;;;;;25.07;23.33;;;16.60;99.90;;;;;;4972804;28;20464;-67
2021/06/24 03:25:47;;;;;;;25.20;23.20;;;16.60;99.90;;;;;;4972677;28;20486;-67
2021/06/24 03:28:14;;;;;;;25.30;23.30;;;16.60;99.90;;;;;;4972915;28;20448;-68
2021/06/24 03:30:41;;;;;;;26.30;24.40;;;16.60;99.90;;;;;;4973104;28;20448;-68
2021/06/24 03:33:08;;;;;;;26.10;24.00;;;16.70;99.90;;;;;;4972551;28;20456;-67
2021/06/24 03:35:35;;;;;;;25.80;23.90;;;16.70;99.90;;;;;;4972606;28;20491;-67
2021/06/24 03:38:02;;;;;;;25.17;23.43;;;16.70;99.90;;;;;;4972813;28;20462;-68
2021/06/24 03:40:29;;;;;;;25.37;23.63;;;16.70;99.90;;;;;;4972664;28;20456;-67
2021/06/24 03:42:57;;;;;;;26.23;23.97;;;16.70;99.90;;;;;;4972487;28;20949;-68
2021/06/24 03:45:24;;;;;;;26.73;24.63;;;16.80;99.90;;;;;;4972607;28;20486;-67
2021/06/24 03:47:51;;;;;;;25.90;24.30;;;16.80;99.90;;;;;;4972734;28;20444;-67
2021/06/24 03:50:17;;;;;;;26.13;23.60;;;16.80;99.90;;;;;;4972626;28;20447;-68
2021/06/24 03:52:44;;;;;;;25.67;23.67;;;16.80;99.90;;;;;;4972382;28;20471;-67
2021/06/24 03:55:12;;;;;;;25.93;24.13;;;16.80;99.90;;;;;;4972527;28;20906;-67
2021/06/24 03:57:39;;;;;;;25.73;24.00;;;16.90;99.90;;;;;;4972510;28;20456;-67
2021/06/24 04:00:09;;;;;;;25.67;23.97;;;16.90;99.90;;;;;;4972563;28;20471;-68
2021/06/24 04:02:35;;;;;;;24.47;22.80;;;16.90;99.90;;;;;;4972538;28;20462;-67
2021/06/24 04:05:02;;;;;;;25.23;23.53;;;16.90;99.90;;;;;;4972471;28;21002;-67
2021/06/24 04:07:29;;;;;;;25.83;24.20;;;16.90;99.90;;;;;;4972441;28;20938;-68
2021/06/24 04:09:55;;;;;;;27.33;25.43;;;16.90;99.90;;;;;;4972547;28;20454;-67
2021/06/24 04:12:22;;;;;;;26.43;24.53;;;16.80;99.90;;;;;;4972301;28;20825;-67
2021/06/24 04:14:49;;;;;;;26.93;25.23;;;16.80;99.90;;;;;;4972311;28;20475;-67
2021/06/24 04:17:17;;;;;;;27.73;25.67;;;16.80;99.90;;;;;;4972465;28;20432;-67
2021/06/24 04:19:44;;;;;;;26.60;24.33;;;16.80;99.90;;;;;;4972242;28;20436;-67
2021/06/24 04:22:11;;;;;;;26.87;24.87;;;16.80;99.90;;;;;;4971948;28;20440;-67
2021/06/24 04:24:37;;;;;;;28.73;26.63;;;16.90;99.90;;;;;;4974762;28;20475;-67
2021/06/24 04:27:05;;;;;;;26.27;24.30;;;16.90;99.90;;;;;;4975931;28;20460;-67
2021/06/24 04:29:31;;;;;;;24.90;23.20;;;17.00;99.90;;;;;;4975937;28;20451;-68
2021/06/24 04:31:59;;;;;;;25.30;23.60;;;17.10;99.90;;;;;;4975644;28;20455;-67
2021/06/24 04:34:27;;;;;;;27.33;25.40;;;17.10;99.90;;;;;;4975501;28;20487;-68
2021/06/24 04:36:54;;;;;;;26.57;24.67;;;17.10;99.90;;;;;;4975819;28;20452;-67
2021/06/24 04:39:20;;;;;;;28.77;26.57;;;17.10;99.90;;;;;;4975735;28;20453;-67
2021/06/24 04:41:47;;;;;;;27.57;25.10;;;17.10;99.90;;;;;;4975484;28;20454;-68
2021/06/24 04:44:14;;;;;;;26.83;25.00;;;17.10;99.90;;;;;;4975559;28;20849;-67
2021/06/24 04:46:41;;;;;;;26.97;24.83;;;17.20;99.90;;;;;;4975610;28;20865;-67
2021/06/24 04:49:07;;;;;;;27.90;25.50;;;17.10;99.90;;;;;;4975567;28;20920;-68
2021/06/24 04:51:35;;;;;;;29.30;27.10;;;17.10;99.90;;;;;;4975194;28;20451;-67
2021/06/24 04:54:02;;;;;;;28.53;26.03;;;17.00;99.90;;;;;;4975300;28;20810;-67
2021/06/24 04:56:29;;;;;;;30.00;27.70;;;17.10;99.90;;;;;;4975307;28;20455;-67
2021/06/24 04:58:57;;;;;;;29.53;27.23;;;17.10;99.90;;;;;;4975309;28;20446;-67
2021/06/24 05:01:23;;;;;;;29.93;27.37;;;17.10;99.90;;;;;;4975064;28;20451;-67
2021/06/24 05:03:50;;;;;;;28.10;25.90;;;17.10;99.90;;;;;;4975265;28;20447;-67
2021/06/24 05:06:17;;;;;;;29.80;27.50;;;17.20;99.90;;;;;;4975147;28;20475;-67
2021/06/24 05:08:45;;;;;;;27.83;25.93;;;17.10;99.90;;;;;;4975109;28;20448;-67
2021/06/24 05:11:12;;;;;;;27.20;25.30;;;17.10;99.90;;;;;;4975080;28;20443;-67
2021/06/24 05:13:39;;;;;;;27.80;25.80;;;17.00;99.90;;;;;;4975002;28;20444;-67
2021/06/24 05:16:06;;;;;;;30.10;27.23;;;17.10;99.90;;;;;;4974829;28;20492;-67
2021/06/24 05:18:34;;;;;;;30.23;27.70;;;17.10;99.90;;;;;;4975110;28;20502;-67
2021/06/24 05:21:01;;;;;;;30.57;28.20;;;17.10;99.90;;;;;;4974900;28;20960;-67
2021/06/24 05:23:28;;;;;;;31.70;28.70;;;17.10;99.90;;;;;;4974697;28;20448;-68
2021/06/24 05:25:57;;;;;;;29.93;27.73;;;17.10;99.90;;;;;;4975371;28;20483;-68
2021/06/24 05:28:24;;;;;;;28.53;26.53;;;17.10;99.90;;;;;;4974706;28;20447;-68
2021/06/24 05:30:51;;;;;;;30.10;27.50;;;17.20;99.90;;;;;;4974874;28;20801;-68
2021/06/24 05:33:18;;;;;;;29.93;28.00;;;17.20;99.90;;;;;;4974537;28;20452;-68
2021/06/24 05:35:47;;;;;;;29.13;26.73;;;17.20;99.90;;;;;;4973934;28;20502;-68
2021/06/24 05:38:13;;;;;;;30.30;27.70;;;17.30;99.90;;;;;;4974722;28;20507;-68
2021/06/24 05:40:40;;;;;;;30.30;27.90;;;17.40;99.90;;;;;;4974618;28;20821;-68
2021/06/24 05:43:08;;;;;;;30.83;28.03;;;17.40;99.90;;;;;;4974370;28;20432;-67
2021/06/24 05:45:35;;;;;;;28.87;26.80;;;17.40;99.90;;;;;;4974465;28;20833;-67
2021/06/24 05:48:02;;;;;;;28.53;26.47;;;17.50;99.90;;;;;;4974391;28;20546;-67
2021/06/24 05:50:29;;;;;;;30.10;27.70;;;17.60;99.90;;;;;;4974342;28;20444;-67
2021/06/24 05:52:56;;;;;;;28.13;26.33;;;17.60;99.90;;;;;;4974133;28;20436;-67
2021/06/24 05:55:47;;;;;;;28.50;26.70;;;17.70;99.90;;;;;;4974142;28;20498;-67
2021/06/24 05:58:14;;;;;;;30.03;27.60;;;17.70;99.90;;;;;;4974096;28;20448;-67
2021/06/24 06:00:41;;;;;;;27.50;25.60;;;17.80;99.90;;;;;;4974145;28;20530;-67
2021/06/24 06:03:08;;;;;;;30.20;28.10;;;17.70;99.90;;;;;;4974071;28;20802;-67
2021/06/24 06:05:36;;;;;;;29.30;27.27;;;17.70;99.90;;;;;;4974142;28;20472;-67
2021/06/24 06:08:04;;;;;;;28.90;26.90;;;17.80;99.90;;;;;;4974133;28;20463;-67
2021/06/24 06:10:31;;;;;;;30.23;27.93;;;17.80;99.90;;;;;;4973963;28;20547;-67
2021/06/24 06:12:58;;;;;;;28.97;26.93;;;17.90;99.90;;;;;;4973763;28;20807;-67
2021/06/24 06:15:26;;;;;;;31.00;28.40;;;17.80;99.90;;;;;;4973868;28;20482;-67
2021/06/24 06:17:53;;;;;;;27.10;25.10;;;17.80;99.90;;;;;;4973829;28;20941;-67
2021/06/24 06:20:20;;;;;;;28.93;26.50;;;17.80;99.90;;;;;;4973753;28;20481;-66
2021/06/24 06:22:47;;;;;;;30.67;27.83;;;17.80;99.90;;;;;;4973470;28;20459;-66
2021/06/24 06:25:15;;;;;;;31.37;28.57;;;17.90;99.90;;;;;;4973482;28;20480;-66
2021/06/24 06:27:43;;;;;;;29.40;26.67;;;17.90;99.90;;;;;;4973605;28;20547;-67
2021/06/24 06:30:11;;;;;;;31.40;28.87;;;17.90;99.90;;;;;;4973519;28;20462;-66
2021/06/24 06:32:39;;;;;;;28.90;26.73;;;17.80;99.90;;;;;;4973471;28;20459;-66
2021/06/24 06:35:07;;;;;;;29.10;26.77;;;17.80;99.90;;;;;;4973420;28;20496;-66
2021/06/24 06:37:34;;;;;;;29.37;27.20;;;17.80;99.90;;;;;;4973601;28;20460;-66
2021/06/24 06:40:00;;;;;;;30.47;28.30;;;17.70;99.90;;;;;;4973423;28;20965;-66
2021/06/24 06:42:27;;;;;;;31.93;29.20;;;17.80;99.90;;;;;;4973183;28;20450;-66
2021/06/24 06:44:54;;;;;;;29.57;27.67;;;17.80;99.90;;;;;;4973189;28;20826;-66
2021/06/24 06:47:20;;;;;;;31.17;28.43;;;17.90;99.90;;;;;;4972589;28;20823;-66
2021/06/24 06:49:48;;;;;;;29.77;27.47;;;17.90;99.90;;;;;;4973168;28;20458;-66
2021/06/24 06:52:15;;;;;;;28.90;26.90;;;18.00;99.90;;;;;;4973030;28;20444;-66
2021/06/24 06:54:42;;;;;;;30.83;28.70;;;18.30;99.90;;;;;;4973048;28;20842;-66
2021/06/24 06:57:08;;;;;;;28.33;26.10;;;18.50;99.90;;;;;;4973094;28;20456;-66
2021/06/24 06:59:35;;;;;;;28.90;26.60;;;18.70;99.90;;;;;;4973059;28;20452;-66
2021/06/24 07:02:02;;;;;;;29.97;27.87;;;18.80;99.90;;;;;;4973013;28;20444;-66
2021/06/24 07:04:29;;;;;;;28.47;26.23;;;18.80;99.90;;;;;;4973191;28;20468;-66
2021/06/24 07:06:57;;;;;;;29.97;27.57;;;19.00;99.90;;;;;;4973048;28;20448;-66
2021/06/24 07:09:24;;;;;;;26.70;24.90;;;19.00;99.90;;;;;;4973062;28;20452;-67
2021/06/24 07:11:50;;;;;;;29.80;27.87;;;19.20;99.90;;;;;;4972801;28;20837;-66
2021/06/24 07:14:18;;;;;;;28.33;26.47;;;19.20;99.90;;;;;;4973009;28;20455;-66
2021/06/24 07:16:44;;;;;;;28.97;27.10;;;19.20;99.90;;;;;;4972965;28;20903;-66
2021/06/24 07:19:11;;;;;;;28.17;26.23;;;19.50;99.90;;;;;;4972864;28;20455;-66
2021/06/24 07:21:38;;;;;;;28.73;26.43;;;19.70;99.90;;;;;;4972727;28;20531;-66
2021/06/24 07:24:08;;;;;;;28.23;26.20;;;19.80;99.90;;;;;;4972702;28;20455;-66
2021/06/24 07:26:35;;;;;;;28.23;25.87;;;20.10;99.90;;;;;;4972781;28;20451;-66
2021/06/24 07:29:02;;;;;;;27.97;25.93;;;20.30;99.90;;;;;;4972690;28;20448;-67
2021/06/24 07:31:28;;;;;;;28.60;26.43;;;20.50;99.90;;;;;;4972681;28;20451;-66
2021/06/24 07:33:55;;;;;;;29.60;27.80;;;20.70;99.90;;;;;;4972533;28;20460;-66
2021/06/24 07:36:22;;;;;;;29.77;27.70;;;20.80;99.90;;;;;;4972619;28;20491;-66
2021/06/24 07:38:48;;;;;;;27.60;26.00;;;20.50;99.90;;;;;;4972631;28;20455;-66
2021/06/24 07:41:16;;;;;;;31.23;28.93;;;20.60;99.90;;;;;;4972760;28;20902;-67
2021/06/24 07:43:43;;;;;;;29.43;27.60;;;20.50;99.90;;;;;;4972426;28;20454;-66
2021/06/24 07:46:10;;;;;;;30.67;28.57;;;20.30;99.90;;;;;;4972524;28;20463;-66
2021/06/24 07:48:36;;;;;;;28.83;27.13;;;20.40;99.90;;;;;;4972603;28;20448;-66
2021/06/24 07:51:04;;;;;;;32.60;30.40;;;20.50;99.90;;;;;;4972462;28;20459;-66
2021/06/24 07:53:31;;;;;;;30.93;28.80;;;20.50;99.90;;;;;;4972293;28;20459;-66
2021/06/24 07:55:57;;;;;;;32.00;29.80;;;20.60;99.90;;;;;;4972322;28;20484;-66
2021/06/24 07:58:25;;;;;;;30.90;28.77;;;20.50;99.90;;;;;;4973507;28;20443;-67
2021/06/24 08:00:52;;;;;;;31.77;29.67;;;20.70;99.90;;;;;;4976465;28;20945;-66
2021/06/24 08:03:19;;;;;;;33.17;30.73;;;20.70;99.90;;;;;;4976145;28;20475;-66
2021/06/24 08:05:45;;;;;;;31.30;28.90;;;21.00;99.90;;;;;;4976287;28;20479;-66
2021/06/24 08:08:12;;;;;;;33.13;30.93;;;21.30;99.90;;;;;;4976453;28;20444;-67
2021/06/24 08:10:39;;;;;;;31.17;28.97;;;21.70;99.90;;;;;;4976300;28;20459;-66
2021/06/24 08:13:05;;;;;;;31.10;28.87;;;22.10;99.90;;;;;;4976013;28;20926;-67
2021/06/24 08:15:33;;;;;;;32.30;29.70;;;22.30;99.90;;;;;;4976039;28;20488;-67
2021/06/24 08:18:00;;;;;;;32.53;30.30;;;22.70;99.90;;;;;;4976243;28;20448;-67
2021/06/24 08:20:27;;;;;;;31.77;29.77;;;22.70;99.90;;;;;;4976093;28;20456;-67
2021/06/24 08:22:55;;;;;;;32.97;30.87;;;22.90;99.90;;;;;;4975765;28;20459;-67
2021/06/24 08:25:22;;;;;;;32.53;30.27;;;23.10;99.80;;;;;;4975782;28;21027;-67
2021/06/24 08:27:50;;;;;;;32.13;29.97;;;23.60;99.20;;;;;;4975968;28;20436;-67
2021/06/24 08:30:19;;;;;;;33.17;30.67;;;24.00;98.30;;;;;;4975989;28;20510;-67
2021/06/24 08:32:47;;;;;;;31.10;28.90;;;24.10;96.50;;;;;;4975617;28;20447;-67
2021/06/24 08:35:15;;;;;;;32.70;30.70;;;24.10;95.90;;;;;;4975530;28;20854;-67
2021/06/24 08:37:42;;;;;;;33.23;30.70;;;24.00;95.50;;;;;;4975747;28;20451;-67
2021/06/24 08:40:11;;;;;;;31.63;29.77;;;23.80;95.90;;;;;;4975541;28;20439;-67
2021/06/24 08:42:38;;;;;;;33.80;31.43;;;24.40;96.10;;;;;;4975366;28;20498;-67
2021/06/24 08:45:07;;;;;;;32.80;30.77;;;24.50;94.70;;;;;;4975360;28;20478;-67
2021/06/24 08:47:35;;;;;;;33.97;31.97;;;24.40;94.30;;;;;;4975617;28;20451;-67
2021/06/24 08:50:04;;;;;;;32.50;30.50;;;24.30;94.50;;;;;;4975552;28;20448;-67
2021/06/24 08:52:31;;;;;;;32.53;30.60;;;24.20;94.40;;;;;;4975212;28;20972;-67
2021/06/24 08:54:57;;;;;;;32.90;30.80;;;24.10;94.80;;;;;;4975347;28;20459;-67
2021/06/24 08:57:24;;;;;;;35.90;33.17;;;23.70;94.90;;;;;;4975357;28;20479;-67
2021/06/24 08:59:51;;;;;;;34.07;31.57;;;23.40;96.50;;;;;;4975329;28;20444;-67
2021/06/24 09:02:18;;;;;;;34.03;31.83;;;23.80;95.90;;;;;;4975097;28;20458;-67
2021/06/24 09:04:48;;;;;;;33.83;31.57;;;24.20;95.50;;;;;;4975090;28;20566;-67
2021/06/24 09:07:21;;;;;;;33.20;30.87;;;24.60;94.10;;;;;;4975251;28;20447;-67
2021/06/24 09:09:52;;;;;;;31.90;30.03;;;25.00;94.10;;;;;;4974197;28;20451;-67
2021/06/24 09:12:19;;;;;;;33.83;31.73;;;24.80;93.20;;;;;;4974893;28;20934;-67
2021/06/24 09:14:48;;;;;;;34.10;31.57;;;24.70;92.80;;;;;;4974994;28;20468;-67
2021/06/24 09:17:33;;;;;;;34.53;32.03;;;24.10;93.10;;;;;;4974898;28;20487;-67
2021/06/24 09:20:00;;;;;;;36.23;33.60;;;23.90;94.10;;;;;;4975108;28;20452;-67
2021/06/24 09:22:29;;;;;;;34.70;32.20;;;24.00;94.40;;;;;;4974590;28;20451;-67
2021/06/24 09:24:55;;;;;;;33.80;31.40;;;24.20;94.80;;;;;;4974423;28;20476;-67
2021/06/24 09:27:28;;;;;;;35.80;33.60;;;24.60;94.10;;;;;;4974820;28;20467;-67
2021/06/24 09:30:05;;;;;;;36.10;33.57;;;24.30;93.50;;;;;;4974657;28;20443;-67
2021/06/24 09:32:35;;;;;;;36.10;33.40;;;24.20;93.70;;;;;;4974463;28;20590;-67
2021/06/24 09:35:04;;;;;;;31.40;29.50;;;24.20;94.10;;;;;;4974676;28;20460;-67
2021/06/24 09:37:58;;;;;;;35.67;33.13;;;24.50;94.00;;;;;;4974529;28;20528;-67
2021/06/24 09:40:36;;;;;;;35.10;32.23;;;24.10;93.40;;;;;;4974537;28;20474;-67
2021/06/24 09:43:02;;;;;;;34.63;32.10;;;23.70;94.30;;;;;;4974483;28;20559;-67
2021/06/24 09:45:29;;;;;;;36.63;34.03;;;23.50;95.10;;;;;;4974330;28;20468;-67
2021/06/24 09:48:07;;;;;;;35.33;32.70;;;23.40;95.80;;;;;;4974290;28;20990;-67
2021/06/24 09:50:34;;;;;;;33.43;31.27;;;23.20;95.50;;;;;;4974446;28;20443;-67
2021/06/24 09:53:09;;;;;;;32.73;30.60;;;23.20;96.10;;;;;;4974082;28;20560;-67
2021/06/24 09:55:36;;;;;;;31.00;29.00;;;22.90;97.00;;;;;;4974175;28;20467;-67
2021/06/24 09:58:12;;;;;;;31.40;29.50;;;22.70;97.90;;;;;;4974307;28;20458;-67
2021/06/24 10:00:49;;;;;;;31.70;29.67;;;22.50;98.30;;;;;;4974238;28;20502;-67
2021/06/24 10:03:16;;;;;;;31.60;29.80;;;22.60;98.80;;;;;;4973995;28;20522;-67
2021/06/24 10:05:44;;;;;;;31.10;29.23;;;22.70;98.50;;;;;;4974049;28;20471;-67
2021/06/24 10:08:13;;;;;;;29.93;27.97;;;22.80;98.10;;;;;;4973922;28;21027;-67
2021/06/24 10:10:43;;;;;;;31.20;29.00;;;23.00;97.90;;;;;;4974064;28;20459;-67
2021/06/24 10:13:11;;;;;;;32.63;30.73;;;23.40;97.40;;;;;;4973792;28;20555;-66
2021/06/24 10:15:39;;;;;;;31.07;29.13;;;23.80;97.10;;;;;;4973960;28;20468;-66
2021/06/24 10:18:06;;;;;;;32.00;30.30;;;23.70;95.80;;;;;;4973663;28;20480;-66
2021/06/24 10:20:34;;;;;;;30.37;28.47;;;23.70;95.60;;;;;;4973733;28;20440;-66
2021/06/24 10:23:04;;;;;;;29.37;27.67;;;23.80;95.30;;;;;;4973424;28;20456;-66
2021/06/24 10:25:32;;;;;;;31.37;29.37;;;23.80;95.00;;;;;;4973592;28;20600;-66
2021/06/24 10:28:01;;;;;;;31.23;29.23;;;24.10;93.70;;;;;;4973717;28;20822;-66
2021/06/24 10:30:28;;;;;;;32.00;30.10;;;24.30;93.20;;;;;;4973730;28;20448;-66
2021/06/24 10:33:03;;;;;;;30.50;28.40;;;24.60;93.20;;;;;;4973207;28;20454;-66
2021/06/24 10:35:31;;;;;;;32.67;30.23;;;24.80;92.70;;;;;;4973452;28;20479;-66
2021/06/24 10:37:58;;;;;;;31.53;29.70;;;25.00;92.00;;;;;;4973571;28;20828;-66
2021/06/24 10:40:28;;;;;;;30.27;28.40;;;25.10;91.40;;;;;;4973380;28;20976;-66
2021/06/24 10:42:58;;;;;;;34.70;32.80;;;25.20;91.10;;;;;;4973222;28;20456;-66
2021/06/24 10:45:26;;;;;;;36.50;33.90;;;25.20;90.10;;;;;;4973246;28;20468;-66
2021/06/24 10:47:55;;;;;;;34.27;32.13;;;25.00;89.80;;;;;;4973334;28;20448;-66
2021/06/24 10:50:44;;;;;;;34.50;32.20;;;24.90;90.30;;;;;;4973205;28;20969;-66
2021/06/24 10:53:54;;;;;;;34.63;31.83;;;24.80;90.40;;;;;;4973077;28;20448;-66
2021/06/24 10:56:45;;;;;;;35.00;32.23;;;25.20;89.90;;;;;;4973021;28;20519;-66
2021/06/24 10:59:33;;;;;;;35.90;33.70;;;25.00;88.90;;;;;;4973102;28;20451;-66
2021/06/24 11:02:11;;;;;;;32.60;30.80;;;25.60;88.20;;;;;;4973044;28;20468;-66
2021/06/24 11:04:42;;;;;;;31.43;29.73;;;26.20;84.50;;;;;;4973027;28;20876;-66
2021/06/24 11:07:24;;;;;;;32.87;30.63;;;26.40;82.70;;;;;;4972910;28;21056;-66
2021/06/24 11:10:12;;;;;;;31.33;29.53;;;26.10;79.70;;;;;;4972890;28;20451;-66
2021/06/24 11:13:11;;;;;;;30.90;29.10;;;25.90;78.60;;;;;;4972673;28;20803;-66
2021/06/24 11:15:51;;;;;;;31.13;29.33;;;26.10;75.90;;;;;;4972697;28;20475;-66
2021/06/24 11:18:57;;;;;;;27.40;26.00;;;26.80;75.10;;;;;;4972796;28;20479;-66
2021/06/24 11:21:56;;;;;;;28.93;27.23;;;27.10;74.90;;;;;;4972877;28;20511;-66
2021/06/24 11:26:54;;;;;;;28.40;26.60;;;26.80;70.30;;;;;;4989319;28;20475;-65
2021/06/24 11:29:34;;;;;;;27.27;25.63;;;26.80;70.20;;;;;;4972968;28;20944;-65
2021/06/24 11:32:10;;;;;;;30.03;28.53;;;27.00;70.30;;;;;;4972872;28;20452;-65
2021/06/24 11:34:43;;;;;;;27.77;26.30;;;27.00;69.20;;;;;;4972361;28;21004;-66
2021/06/24 11:37:13;;;;;;;27.60;26.10;;;27.10;69.00;;;;;;4972833;28;20855;-65
2021/06/24 11:39:42;;;;;;;31.40;29.17;;;26.30;68.80;;;;;;4972805;28;20455;-66
2021/06/24 11:42:11;;;;;;;30.23;28.00;;;25.70;70.70;;;;;;4972634;28;20460;-66
2021/06/24 11:44:41;;;;;;;28.80;26.87;;;25.50;73.30;;;;;;4972671;28;20450;-66
2021/06/24 11:47:12;;;;;;;30.80;28.90;;;25.20;75.40;;;;;;4972594;28;20884;-65
2021/06/24 12:01:38;;;;;;;28.70;27.03;;;24.60;79.40;;;;;;4972727;28;20894;-65
2021/06/24 12:04:08;;;;;;;29.17;27.33;;;24.30;79.80;;;;;;4972360;28;20514;-64
2021/06/24 12:06:46;;;;;;;29.20;27.20;;;24.00;81.50;;;;;;4972510;28;20468;-64
2021/06/24 12:09:13;;;;;;;27.83;26.23;;;23.80;83.70;;;;;;4972406;28;20486;-65
2021/06/24 12:11:41;;;;;;;28.33;26.83;;;23.70;84.70;;;;;;4972522;28;20479;-66
2021/06/24 12:14:23;;;;;;;27.50;25.90;;;23.80;84.40;;;;;;4972320;28;20450;-65
2021/06/24 12:17:24;;;;;;;26.47;25.17;;;23.80;86.10;;;;;;4972345;28;20486;-66
2021/06/24 12:19:59;;;;;;;28.40;26.63;;;23.70;85.30;;;;;;4972406;28;20842;-66
2021/06/24 12:22:39;;;;;;;26.27;24.67;;;23.70;83.20;;;;;;4972199;28;20533;-65
2021/06/24 12:25:08;;;;;;;25.53;24.10;;;23.80;80.10;;;;;;4972199;28;20686;-66
2021/06/24 12:27:37;;;;;;;26.00;24.40;;;23.70;77.90;;;;;;4972473;28;20460;-66
2021/06/24 12:30:08;;;;;;;28.60;26.90;;;23.60;79.40;;;;;;4972308;28;20463;-66
2021/06/24 12:32:37;;;;;;;26.93;25.57;;;23.50;80.20;;;;;;4981422;28;20447;-66
2021/06/24 12:35:07;;;;;;;26.70;25.20;;;23.70;80.90;;;;;;4991456;28;20979;-66
2021/06/24 12:37:37;;;;;;;26.77;24.93;;;24.00;81.00;;;;;;4991670;28;20563;-66
2021/06/24 12:40:07;;;;;;;27.90;26.30;;;24.30;81.30;;;;;;4991866;28;20438;-66
2021/06/24 12:42:34;;;;;;;26.03;24.60;;;24.70;79.40;;;;;;4991457;28;20817;-66
2021/06/24 12:45:02;;;;;;;28.43;26.60;;;25.90;77.30;;;;;;4991511;28;20968;-65
2021/06/24 12:47:41;;;;;;;27.70;26.30;;;27.10;73.50;;;;;;4994182;28;20446;-64
2021/06/24 12:50:19;;;;;;;28.90;27.30;;;27.30;68.30;;;;;;4995040;28;20475;-65
2021/06/24 12:52:47;;;;;;;26.90;25.63;;;27.50;65.70;;;;;;4994853;28;20959;-65